LEBB/BIO METAR and TAF weather

Enter ICAO airport designator
Station Type Date Time Source
LEBB METAR 2018/12/12 11:30 UTC NOAA

LEBB 121130Z 12004KT 9999 BKN045 BKN055 12/10 Q1021 TEMPO 3000 BKN012


Station Type Date Time Source
LEBB Decoded METAR 2018/12/12 11:30 UTC NOAA

Bilbao / Sondica, Spain (LEBB) 43-18N 002-56W 37M
Dec 12, 2018 - 06:30 AM EST / 2018.12.12 1130 UTC
Wind: from the ESE (120 degrees) at 5 MPH (4 KT):0
Visibility: greater than 7 mile(s):0
Sky conditions: mostly cloudy
Temperature: 53 F (12 C)
Dew Point: 50 F (10 C)
Relative Humidity: 87%
Pressure (altimeter): 30.15 in. Hg (1021 hPa)
ob: LEBB 121130Z 12004KT 9999 BKN045 BKN055 12/10 Q1021 TEMPO 3000 BKN012
cycle: 11

Station Type Date Time Source
LEBB TAF 2018/12/12 12:27 UTC NOAA

TAF LEBB 121100Z 1212/1312 12007KT 9999 SCT014 BKN030 TX14/1214Z TN09/1306Z
BECMG 1218/1221 20010KT
TEMPO 1221/1306 20015G30KT
TEMPO 1303/1312 3000 RA PROB40
TEMPO 1303/1312 30015G30KT 3000 SHRA SCT020TCU


Example: see airport list